EDV5475 KPVD-KLGA
Flight info
| Callsign | EDV5475 |
|---|---|
| Flight time | N/A |
| Altitude | 20000 |
| Route | DCT PUT DCT NELIE VADDR1 |
| Aircraft | CRJ7/M-SDFGIRWY/S |
Departure
| Time | 2026-05-07 03:06 |
|---|---|
| Airport | Rhode Island T. F. Green International Airport (KPVD) |
Arrival
| Time | N/A |
|---|---|
| Airport | LaGuardia Airport (KLGA) |
| Time | Latitude | Longitude | Altitude | Speed | Heading |
|---|---|---|---|---|---|
| 2026-05-07 02:48 | 41.72505 | -71.43516 | 58 ft | 0 kts | 302° |
| 2026-05-07 02:57 | 41.72504 | -71.43514 | 58 ft | 2 kts | 302° |
| 2026-05-07 02:57 | 41.72491 | -71.43486 | 50 ft | 4 kts | 302° |
| 2026-05-07 02:57 | 41.72474 | -71.43459 | 54 ft | 4 kts | 324° |
| 2026-05-07 02:58 | 41.72451 | -71.43450 | 55 ft | 4 kts | 13° |
| 2026-05-07 02:58 | 41.72442 | -71.43455 | 52 ft | 0 kts | 32° |
| 2026-05-07 03:00 | 41.72448 | -71.43451 | 56 ft | 2 kts | 32° |
| 2026-05-07 03:00 | 41.72466 | -71.43436 | 57 ft | 4 kts | 32° |
| 2026-05-07 03:00 | 41.72492 | -71.43414 | 58 ft | 5 kts | 32° |
| 2026-05-07 03:00 | 41.72520 | -71.43390 | 58 ft | 5 kts | 32° |
| 2026-05-07 03:01 | 41.72548 | -71.43362 | 58 ft | 6 kts | 49° |
| 2026-05-07 03:01 | 41.72554 | -71.43305 | 54 ft | 8 kts | 103° |
| 2026-05-07 03:01 | 41.72543 | -71.43219 | 58 ft | 11 kts | 94° |
| 2026-05-07 03:01 | 41.72549 | -71.43101 | 57 ft | 14 kts | 85° |
| 2026-05-07 03:02 | 41.72555 | -71.42963 | 56 ft | 16 kts | 87° |
| 2026-05-07 03:02 | 41.72520 | -71.42817 | 54 ft | 19 kts | 123° |
| 2026-05-07 03:02 | 41.72445 | -71.42663 | 53 ft | 20 kts | 123° |
| 2026-05-07 03:02 | 41.72346 | -71.42536 | 55 ft | 20 kts | 141° |
| 2026-05-07 03:03 | 41.72240 | -71.42422 | 56 ft | 19 kts | 137° |
| 2026-05-07 03:03 | 41.72150 | -71.42286 | 54 ft | 21 kts | 140° |
| 2026-05-07 03:03 | 41.72034 | -71.42161 | 52 ft | 20 kts | 142° |
| 2026-05-07 03:03 | 41.71935 | -71.42060 | 49 ft | 17 kts | 142° |
| 2026-05-07 03:04 | 41.71862 | -71.41983 | 48 ft | 10 kts | 141° |
| 2026-05-07 03:04 | 41.71827 | -71.41926 | 49 ft | 7 kts | 94° |
| 2026-05-07 03:04 | 41.71849 | -71.41869 | 50 ft | 8 kts | 50° |
| 2026-05-07 03:04 | 41.71895 | -71.41870 | 47 ft | 0 kts | 318° |
| 2026-05-07 03:05 | 41.71909 | -71.41887 | 46 ft | 15 kts | 318° |
| 2026-05-07 03:05 | 41.72196 | -71.42196 | 51 ft | 92 kts | 322° |
| 2026-05-07 03:05 | 41.72874 | -71.42935 | 60 ft | 156 kts | 317° |
| 2026-05-07 03:06 | 41.73758 | -71.43871 | 642 ft | 160 kts | 316° |
| 2026-05-07 03:06 | 41.74586 | -71.44759 | 1639 ft | 146 kts | 305° |
| 2026-05-07 03:06 | 41.75447 | -71.45594 | 2396 ft | 161 kts | 318° |
| 2026-05-07 03:06 | 41.76448 | -71.46363 | 3193 ft | 171 kts | 319° |
| 2026-05-07 03:07 | 41.77491 | -71.47190 | 4070 ft | 177 kts | 318° |
| 2026-05-07 03:07 | 41.78533 | -71.48053 | 4867 ft | 180 kts | 317° |
| 2026-05-07 03:07 | 41.79684 | -71.49041 | 5114 ft | 212 kts | 318° |
| 2026-05-07 03:07 | 41.80926 | -71.50256 | 5489 ft | 227 kts | 304° |
| 2026-05-07 03:08 | 41.81777 | -71.52069 | 5984 ft | 237 kts | 292° |
| 2026-05-07 03:08 | 41.82607 | -71.54053 | 6555 ft | 250 kts | 292° |
| 2026-05-07 03:08 | 41.83450 | -71.56108 | 7370 ft | 253 kts | 292° |
| 2026-05-07 03:08 | 41.84290 | -71.58194 | 8190 ft | 255 kts | 291° |
| 2026-05-07 03:09 | 41.85123 | -71.60308 | 9021 ft | 257 kts | 291° |
| 2026-05-07 03:09 | 41.85950 | -71.62420 | 9803 ft | 260 kts | 291° |
| 2026-05-07 03:09 | 41.86822 | -71.64598 | 10244 ft | 277 kts | 291° |
| 2026-05-07 03:09 | 41.87789 | -71.66956 | 10535 ft | 295 kts | 293° |
| 2026-05-07 03:10 | 41.88833 | -71.69336 | 11265 ft | 300 kts | 294° |
| 2026-05-07 03:10 | 41.89910 | -71.71749 | 11988 ft | 303 kts | 294° |
| 2026-05-07 03:10 | 41.90996 | -71.74185 | 12742 ft | 305 kts | 294° |
| 2026-05-07 03:10 | 41.92096 | -71.76643 | 13504 ft | 308 kts | 294° |
| 2026-05-07 03:11 | 41.93199 | -71.79126 | 14163 ft | 311 kts | 293° |
| 2026-05-07 03:11 | 41.94308 | -71.81644 | 14788 ft | 314 kts | 294° |
| 2026-05-07 03:11 | 41.95383 | -71.84205 | 15380 ft | 313 kts | 286° |
| 2026-05-07 03:11 | 41.95740 | -71.87011 | 15960 ft | 305 kts | 266° |
| 2026-05-07 03:12 | 41.95672 | -71.89858 | 16549 ft | 307 kts | 263° |
| 2026-05-07 03:12 | 41.95547 | -71.92727 | 17185 ft | 309 kts | 263° |
| 2026-05-07 03:12 | 41.95425 | -71.95621 | 17797 ft | 312 kts | 263° |
| 2026-05-07 03:12 | 41.95331 | -71.98545 | 18366 ft | 314 kts | 264° |
| 2026-05-07 03:13 | 41.95279 | -72.01473 | 18944 ft | 314 kts | 265° |
| 2026-05-07 03:13 | 41.95237 | -72.04408 | 19492 ft | 315 kts | 265° |
| 2026-05-07 03:13 | 41.95193 | -72.07355 | 19773 ft | 324 kts | 266° |
| 2026-05-07 03:13 | 41.95143 | -72.10437 | 19903 ft | 336 kts | 266° |
| 2026-05-07 03:14 | 41.95090 | -72.13628 | 19970 ft | 348 kts | 266° |
| 2026-05-07 03:14 | 41.95035 | -72.16934 | 19991 ft | 359 kts | 266° |
| 2026-05-07 03:14 | 41.94921 | -72.23825 | 20017 ft | 379 kts | 266° |
| 2026-05-07 03:15 | 41.94862 | -72.27405 | 20055 ft | 388 kts | 266° |
| 2026-05-07 03:15 | 41.94800 | -72.30744 | 20702 ft | 179 kts | 266° |
| 2026-05-07 03:15 | 41.94820 | -72.32444 | 20940 ft | 180 kts | 266° |
| 2026-05-07 03:15 | 41.94838 | -72.33266 | 21352 ft | 168 kts | 267° |